This is the latest recevied weather packets stored in our database for station/object GW1597. If no packets are shown the sender has not sent any weather packets the latest 10 day(s).
| Time | Temp. | Humidity | Pressure | Rain* | Wind** | Luminosity | Snow |
|---|---|---|---|---|---|---|---|
| 1777832334 | 16.67° C | 33% | 992.2 hPa | 0 mm | - | - | - |
| 1777830500 | 15.56° C | 38% | 992.5 hPa | 0 mm | - | - | - |
| 1777824410 | 13.33° C | 41% | 994.2 hPa | 0 mm | - | - | - |
| 1777823677 | 13.33° C | 41% | 994.5 hPa | 0 mm | - | - | - |
| 1777821138 | 12.22° C | 46% | 994.9 hPa | 0 mm | - | - | - |
| 1777820790 | 11.67° C | 45% | 994.9 hPa | 0 mm | - | - | - |
| 1777820078 | 11.67° C | 48% | 994.5 hPa | 0 mm | - | - | - |
| 1777818641 | 11.11° C | 50% | 994.5 hPa | 0 mm | - | - | - |
| 1777816828 | 8.89° C | 69% | 994.9 hPa | 0 mm | - | - | - |
| 1777808179 | 1.67° C | 94% | 994.5 hPa | 0 mm | - | - | - |
| 1777807091 | 1.67° C | 94% | 994.2 hPa | 0 mm | - | - | - |
| 1777804936 | 1.67° C | 94% | 993.9 hPa | 0 mm | - | - | - |
| 1777802774 | 1.67° C | 94% | 993.2 hPa | 0 mm | - | - | - |
| 1777798814 | 1.67° C | 95% | 993.2 hPa | 0 mm | - | - | - |
| 1777797760 | 1.67° C | 94% | 992.8 hPa | 0 mm | - | - | - |
| 1777797038 | 1.11° C | 94% | 992.8 hPa | 0 mm | - | - | - |
| 1777796691 | 1.11° C | 94% | 992.5 hPa | 0 mm | - | - | - |
| 1777791983 | 1.67° C | 94% | 992.2 hPa | 0 mm | - | - | - |
| 1777789092 | 2.78° C | 94% | 991.8 hPa | 0 mm | - | - | - |
| 1777786957 | 2.78° C | 93% | 991.8 hPa | 0 mm | - | - | - |
| 1777786583 | 3.33° C | 93% | 991.8 hPa | 0 mm | - | - | - |
| 1777786251 | 3.33° C | 93% | 991.8 hPa | 0 mm | - | - | - |
| 1777785535 | 3.33° C | 93% | 991.5 hPa | 0 mm | - | - | - |
| 1777783725 | 3.89° C | 92% | 991.5 hPa | 0 mm | - | - | - |
| 1777783362 | 3.89° C | 92% | 991.1 hPa | 0 mm | - | - | - |
* Rain since midnight (hover to see other rain measurements)
** Current wind speed in m/s (hover to see current wind gust speed)